createdAt,value
2018-12-06T00:00:50.241Z,5.4
2018-12-06T00:02:50.407Z,5.4
2018-12-06T00:04:49.664Z,7.0
2018-12-06T00:06:49.891Z,7.0
2018-12-06T00:08:49.862Z,8.6
2018-12-06T00:10:49.796Z,6.7
2018-12-06T00:12:49.816Z,7.7
2018-12-06T00:14:49.792Z,9.7
2018-12-06T00:16:50.012Z,9.7
2018-12-06T00:18:50.015Z,6.9
2018-12-06T00:20:50.002Z,7.2
2018-12-06T00:22:50.016Z,7.2
2018-12-06T00:24:50.035Z,7.8
2018-12-06T00:26:50.275Z,7.8
2018-12-06T00:28:50.226Z,7.1
2018-12-06T00:30:50.265Z,6.7
2018-12-06T00:32:50.253Z,7.6
2018-12-06T00:34:49.634Z,7.6
2018-12-06T00:36:49.786Z,7.3
2018-12-06T00:38:49.752Z,7.5
2018-12-06T00:40:49.683Z,7.6
2018-12-06T00:42:49.620Z,7.3
2018-12-06T00:44:49.656Z,7.5
2018-12-06T00:46:49.805Z,7.5
2018-12-06T00:48:49.834Z,6.8
2018-12-06T00:50:49.862Z,7.7
2018-12-06T00:52:49.849Z,8.8
2018-12-06T00:54:49.807Z,8.8
2018-12-06T00:56:50.017Z,9.8
2018-12-06T00:58:49.978Z,9.1
2018-12-06T01:00:50.005Z,7.6
2018-12-06T01:02:49.971Z,7.7
2018-12-06T01:04:50.319Z,7.7
2018-12-06T01:06:49.602Z,5.5
2018-12-06T01:08:49.618Z,5.9
2018-12-06T01:10:49.719Z,7.6
2018-12-06T01:12:49.670Z,7.6
2018-12-06T01:14:49.657Z,6.0
2018-12-06T01:16:49.804Z,6.0
2018-12-06T01:18:49.799Z,7.1
2018-12-06T01:20:49.888Z,7.1
2018-12-06T01:22:49.877Z,6.6
2018-12-06T01:24:49.843Z,7.5
2018-12-06T01:26:49.973Z,6.7
2018-12-06T01:28:49.939Z,8.7
2018-12-06T01:30:49.976Z,8.7
2018-12-06T01:32:49.975Z,7.4
2018-12-06T01:34:50.295Z,10.9
2018-12-06T01:36:49.467Z,6.5
2018-12-06T01:38:50.401Z,8.8
2018-12-06T01:40:50.419Z,6.1
2018-12-06T01:42:49.560Z,6.1
2018-12-06T01:44:49.569Z,8.6
2018-12-06T01:46:49.871Z,8.7
2018-12-06T01:48:49.866Z,6.9
2018-12-06T01:50:49.848Z,6.9
2018-12-06T01:52:49.843Z,8.5
2018-12-06T01:54:49.878Z,6.9
2018-12-06T01:56:50.037Z,7.1
2018-12-06T01:58:49.982Z,7.1
2018-12-06T02:00:49.988Z,8.5
2018-12-06T02:02:49.977Z,6.8
2018-12-06T02:04:50.386Z,7.6
2018-12-06T02:06:49.782Z,10.9
2018-12-06T02:08:49.787Z,7.8
2018-12-06T02:10:49.787Z,5.9
2018-12-06T02:12:49.937Z,5.9
2018-12-06T02:14:49.978Z,7.6
2018-12-06T02:16:50.203Z,7.6
2018-12-06T02:18:50.256Z,8.5
2018-12-06T02:20:50.294Z,8.5
2018-12-06T02:22:49.453Z,9.0
2018-12-06T02:24:49.638Z,8.2
2018-12-06T02:26:50.017Z,7.4
2018-12-06T02:28:50.079Z,8.5
2018-12-06T02:30:50.095Z,8.5
2018-12-06T02:32:50.176Z,8.5
2018-12-06T02:34:49.516Z,9.2
2018-12-06T02:36:49.813Z,9.2
2018-12-06T02:38:49.934Z,7.0
2018-12-06T02:40:49.955Z,7.8
2018-12-06T02:42:49.992Z,10.6
2018-12-06T02:44:49.994Z,10.7
2018-12-06T02:46:50.184Z,12.4
2018-12-06T02:48:50.265Z,8.8
2018-12-06T02:50:50.309Z,8.8
2018-12-06T02:52:50.285Z,9.5
2018-12-06T02:54:50.305Z,10.3
2018-12-06T02:56:49.561Z,12.2
2018-12-06T02:58:49.627Z,12.2
2018-12-06T03:00:49.629Z,10.3
2018-12-06T03:02:49.657Z,11.5
2018-12-06T03:04:49.976Z,11.5
2018-12-06T03:06:50.183Z,8.5
2018-12-06T03:08:49.499Z,8.5
2018-12-06T03:10:49.517Z,6.8
2018-12-06T03:12:49.626Z,10.8
2018-12-06T03:14:49.593Z,10.8
2018-12-06T03:16:49.753Z,8.5
2018-12-06T03:18:49.723Z,8.5
2018-12-06T03:20:49.708Z,8.5
2018-12-06T03:22:49.724Z,9.6
2018-12-06T03:24:49.715Z,7.4
2018-12-06T03:26:50.038Z,9.7
2018-12-06T03:28:50.027Z,9.7
2018-12-06T03:30:50.079Z,10.0
2018-12-06T03:32:50.189Z,7.6
2018-12-06T03:34:49.663Z,10.1
2018-12-06T03:36:49.773Z,10.1
2018-12-06T03:38:49.819Z,8.7
2018-12-06T03:40:49.810Z,9.3
2018-12-06T03:42:49.905Z,11.1
2018-12-06T03:44:49.937Z,8.1
2018-12-06T03:46:50.216Z,8.6
2018-12-06T03:48:50.180Z,8.6
2018-12-06T03:50:50.186Z,10.5
2018-12-06T03:52:50.144Z,10.8
2018-12-06T03:54:50.143Z,9.4
2018-12-06T03:56:50.328Z,9.4
2018-12-06T03:58:50.296Z,8.1
2018-12-06T04:00:49.468Z,11.8
2018-12-06T04:02:49.449Z,10.5
2018-12-06T04:04:49.939Z,9.5
2018-12-06T04:06:50.055Z,9.5
2018-12-06T04:08:50.158Z,13.6
2018-12-06T04:10:50.202Z,9.3
2018-12-06T04:12:50.199Z,9.3
2018-12-06T04:14:50.220Z,12.5
2018-12-06T04:16:49.513Z,12.5
2018-12-06T04:18:49.626Z,9.5
2018-12-06T04:20:49.803Z,9.8
2018-12-06T04:22:49.771Z,9.8
2018-12-06T04:24:49.771Z,10.9
2018-12-06T04:26:49.968Z,10.9
2018-12-06T04:28:50.026Z,13.5
2018-12-06T04:30:50.008Z,7.9
2018-12-06T04:32:50.106Z,7.9
2018-12-06T04:34:49.666Z,11.7
2018-12-06T04:36:49.816Z,11.7
2018-12-06T04:38:49.947Z,11.6
2018-12-06T04:40:50.009Z,11.6
2018-12-06T04:42:50.077Z,12.0
2018-12-06T04:44:50.082Z,10.4
2018-12-06T04:46:50.326Z,10.4
2018-12-06T04:48:50.274Z,12.4
2018-12-06T04:50:50.198Z,11.0
2018-12-06T04:52:50.202Z,11.3
2018-12-06T04:54:50.135Z,11.3
2018-12-06T04:56:50.207Z,11.3
2018-12-06T04:58:50.232Z,12.2
2018-12-06T05:00:50.229Z,12.2
2018-12-06T05:02:50.363Z,12.5
2018-12-06T05:04:49.627Z,12.5
2018-12-06T05:06:49.924Z,12.6
2018-12-06T05:08:49.880Z,13.1
2018-12-06T05:10:49.859Z,13.9
2018-12-06T05:12:49.821Z,13.9
2018-12-06T05:14:49.795Z,15.0
2018-12-06T05:16:49.982Z,14.1
2018-12-06T05:18:50.018Z,15.9
2018-12-06T05:20:50.043Z,16.8
2018-12-06T05:22:50.010Z,16.8
2018-12-06T05:24:49.980Z,17.3
2018-12-06T05:26:49.617Z,14.9
2018-12-06T05:28:49.645Z,13.6
2018-12-06T05:30:49.739Z,16.6
2018-12-06T05:32:49.680Z,16.6
2018-12-06T05:34:49.957Z,16.2
2018-12-06T05:36:50.012Z,15.0
2018-12-06T05:38:50.028Z,17.3
2018-12-06T05:40:50.086Z,17.3
2018-12-06T05:42:50.026Z,14.4
2018-12-06T05:44:50.046Z,20.4
2018-12-06T05:46:50.237Z,21.6
2018-12-06T05:48:50.186Z,21.4
2018-12-06T05:50:50.267Z,20.1
2018-12-06T05:52:50.229Z,20.1
2018-12-06T05:54:50.299Z,17.4
2018-12-06T05:56:49.516Z,16.8
2018-12-06T05:58:49.586Z,16.8
2018-12-06T06:00:49.571Z,18.3
2018-12-06T06:02:49.586Z,19.2
2018-12-06T06:04:49.924Z,16.2
2018-12-06T06:06:50.225Z,17.8
2018-12-06T06:08:50.276Z,16.5
2018-12-06T06:10:50.259Z,16.5
2018-12-06T06:12:50.259Z,17.6
2018-12-06T06:14:50.302Z,19.7
2018-12-06T06:16:49.617Z,21.2
2018-12-06T06:18:49.715Z,20.2
2018-12-06T06:20:49.686Z,20.2
2018-12-06T06:22:49.711Z,21.6
2018-12-06T06:24:49.742Z,20.6
2018-12-06T06:26:49.911Z,24.7
2018-12-06T06:28:49.952Z,24.7
2018-12-06T06:30:49.976Z,21.9
2018-12-06T06:32:50.012Z,21.1
2018-12-06T06:34:50.191Z,22.7
2018-12-06T06:36:49.881Z,22.7
2018-12-06T06:38:49.912Z,22.3
2018-12-06T06:40:49.974Z,22.3
2018-12-06T06:42:50.048Z,19.7
2018-12-06T06:44:50.001Z,21.8
2018-12-06T06:46:50.305Z,21.8
2018-12-06T06:48:50.409Z,18.5
2018-12-06T06:50:49.541Z,18.5
2018-12-06T06:52:50.395Z,20.6
2018-12-06T06:54:49.558Z,22.8
2018-12-06T06:56:49.942Z,22.4
2018-12-06T06:58:49.906Z,25.3
2018-12-06T07:00:49.898Z,25.3
2018-12-06T07:02:49.859Z,19.5
2018-12-06T07:04:50.225Z,21.4
2018-12-06T07:06:49.464Z,23.2
2018-12-06T07:08:49.547Z,23.2
2018-12-06T07:10:49.577Z,25.8
2018-12-06T07:12:49.716Z,21.1
2018-12-06T07:14:49.715Z,21.6
2018-12-06T07:16:49.857Z,19.8
2018-12-06T07:18:49.808Z,19.8
2018-12-06T07:20:49.775Z,20.8
2018-12-06T07:22:49.809Z,23.5
2018-12-06T07:24:49.876Z,23.5
2018-12-06T07:26:50.111Z,21.3
2018-12-06T07:28:50.142Z,21.3
2018-12-06T07:30:50.092Z,21.6
2018-12-06T07:32:50.088Z,23.8
2018-12-06T07:34:49.483Z,23.1
2018-12-06T07:36:49.764Z,24.3
2018-12-06T07:38:49.755Z,24.3
2018-12-06T07:40:49.714Z,23.1
2018-12-06T07:42:49.796Z,23.2
2018-12-06T07:44:49.810Z,23.2
2018-12-06T07:46:50.013Z,23.2
2018-12-06T07:48:50.066Z,23.2
2018-12-06T07:50:50.088Z,24.0
2018-12-06T07:52:50.122Z,20.1
2018-12-06T07:54:50.195Z,22.4
2018-12-06T07:56:50.411Z,24.3
2018-12-06T07:58:49.470Z,24.3
2018-12-06T08:00:49.507Z,22.4
2018-12-06T08:02:49.562Z,23.6
2018-12-06T08:04:49.983Z,25.8
2018-12-06T08:06:50.239Z,23.6
2018-12-06T08:08:50.286Z,23.6
2018-12-06T08:10:50.250Z,24.2
2018-12-06T08:12:50.331Z,23.6
2018-12-06T08:14:49.450Z,25.0
2018-12-06T08:16:49.629Z,25.0
2018-12-06T08:18:49.772Z,24.0
2018-12-06T08:20:49.746Z,21.4
2018-12-06T08:22:49.761Z,21.1
2018-12-06T08:24:49.787Z,22.4
2018-12-06T08:26:49.931Z,22.4
2018-12-06T08:28:49.994Z,21.3
2018-12-06T08:30:49.999Z,22.2
2018-12-06T08:32:50.117Z,19.3
2018-12-06T08:34:50.319Z,19.3
2018-12-06T08:36:49.641Z,18.9
2018-12-06T08:38:49.691Z,21.4
2018-12-06T08:40:49.675Z,19.1
2018-12-06T08:42:49.601Z,19.1
2018-12-06T08:44:49.607Z,18.9
2018-12-06T08:46:49.758Z,22.1
2018-12-06T08:48:49.734Z,18.4
2018-12-06T08:50:49.790Z,18.3
2018-12-06T08:52:49.777Z,25.0
2018-12-06T08:54:49.717Z,22.7
2018-12-06T08:56:49.954Z,22.7
2018-12-06T08:58:49.946Z,19.8
2018-12-06T09:00:49.910Z,22.9
2018-12-06T09:02:49.919Z,22.4
2018-12-06T09:04:50.247Z,22.4
2018-12-06T09:06:49.491Z,25.9
2018-12-06T09:08:49.589Z,22.6
2018-12-06T09:10:51.633Z,23.0
2018-12-06T09:12:49.987Z,21.5
2018-12-06T09:14:49.975Z,21.5
2018-12-06T09:16:50.136Z,25.5
2018-12-06T09:18:50.135Z,24.0
2018-12-06T09:20:50.105Z,24.0
2018-12-06T09:22:50.181Z,21.3
2018-12-06T09:24:50.163Z,21.3
2018-12-06T09:26:49.515Z,21.3
2018-12-06T09:28:49.541Z,21.6
2018-12-06T09:30:49.541Z,24.6
2018-12-06T09:32:49.656Z,24.3
2018-12-06T09:34:50.098Z,24.3
2018-12-06T09:36:50.358Z,24.2
2018-12-06T09:38:49.421Z,26.4
2018-12-06T09:40:49.484Z,29.9
2018-12-06T09:42:49.613Z,29.9
2018-12-06T09:44:49.604Z,23.5
2018-12-06T09:46:49.880Z,23.0
2018-12-06T09:48:50.054Z,24.4
2018-12-06T09:50:49.966Z,22.8
2018-12-06T09:52:50.156Z,22.8
2018-12-06T09:54:50.242Z,25.2
2018-12-06T09:56:49.447Z,27.0
2018-12-06T09:58:50.431Z,27.0
2018-12-06T10:00:49.504Z,25.5
2018-12-06T10:02:49.491Z,25.5
2018-12-06T10:04:49.884Z,30.0
2018-12-06T10:06:50.156Z,23.4
2018-12-06T10:08:50.179Z,29.4
2018-12-06T10:10:50.135Z,28.2
2018-12-06T10:12:50.138Z,28.2
2018-12-06T10:14:50.098Z,25.8
2018-12-06T10:16:50.315Z,23.3
2018-12-06T10:18:50.253Z,25.6
2018-12-06T10:20:50.262Z,26.5
2018-12-06T10:22:50.206Z,26.5
2018-12-06T10:24:50.298Z,23.5
2018-12-06T10:26:49.448Z,26.9
2018-12-06T10:28:49.529Z,25.0
2018-12-06T10:30:49.564Z,27.5
2018-12-06T10:32:49.669Z,27.5
2018-12-06T10:34:53.330Z,22.8
2018-12-06T10:36:49.876Z,26.7
2018-12-06T10:38:49.895Z,23.8
2018-12-06T10:40:49.856Z,25.9
2018-12-06T10:42:49.957Z,25.9
2018-12-06T10:44:49.968Z,23.8
2018-12-06T10:46:50.290Z,23.8
2018-12-06T10:48:50.281Z,25.6
2018-12-06T10:50:50.289Z,25.6
2018-12-06T10:52:50.244Z,26.7
2018-12-06T10:54:50.264Z,25.4
2018-12-06T10:56:49.588Z,23.9
2018-12-06T10:58:49.620Z,23.9
2018-12-06T11:00:57.016Z,24.8
2018-12-06T11:02:49.617Z,24.1
2018-12-06T11:04:49.757Z,25.3
2018-12-06T11:06:49.938Z,26.6
2018-12-06T11:08:50.044Z,26.6
2018-12-06T11:10:50.017Z,29.3
2018-12-06T11:12:49.989Z,25.8
2018-12-06T11:14:49.989Z,24.7
2018-12-06T11:16:50.176Z,24.7
2018-12-06T11:18:50.127Z,28.0
2018-12-06T11:20:50.128Z,24.9
2018-12-06T11:22:50.054Z,22.2
2018-12-06T11:24:50.086Z,24.4
2018-12-06T11:26:50.237Z,23.8
2018-12-06T11:28:50.224Z,23.8
2018-12-06T11:30:50.222Z,23.6
2018-12-06T11:32:50.434Z,26.0
2018-12-06T11:34:49.947Z,23.8
2018-12-06T11:36:50.070Z,25.3
2018-12-06T11:38:50.101Z,25.3
2018-12-06T11:40:50.139Z,22.2
2018-12-06T11:42:50.079Z,25.6
2018-12-06T11:44:50.157Z,21.9
2018-12-06T11:46:49.463Z,23.0
2018-12-06T11:48:49.483Z,23.0
2018-12-06T11:50:49.590Z,23.8
2018-12-06T11:52:49.577Z,23.9
2018-12-06T11:54:49.550Z,22.8
2018-12-06T11:56:49.745Z,22.8
2018-12-06T11:58:49.688Z,25.4
2018-12-06T12:00:49.686Z,23.0
2018-12-06T12:02:49.643Z,27.4
2018-12-06T12:04:50.211Z,25.5
2018-12-06T12:06:49.553Z,25.5
2018-12-06T12:08:49.664Z,23.0
2018-12-06T12:10:49.682Z,23.2
2018-12-06T12:12:49.649Z,21.8
2018-12-06T12:14:50.943Z,24.1
2018-12-06T12:16:50.293Z,24.1
2018-12-06T12:18:50.317Z,23.3
2018-12-06T12:20:50.270Z,24.7
2018-12-06T12:22:50.422Z,23.9
2018-12-06T12:24:49.440Z,24.3
2018-12-06T12:26:49.665Z,24.3
2018-12-06T12:28:49.741Z,26.4
2018-12-06T12:30:49.788Z,32.2
2018-12-06T12:32:49.804Z,23.9
2018-12-06T12:34:50.083Z,24.7
2018-12-06T12:36:50.299Z,24.7
2018-12-06T12:38:50.304Z,21.9
2018-12-06T12:40:50.264Z,29.0
2018-12-06T12:42:50.267Z,29.0
2018-12-06T12:44:50.319Z,21.7
2018-12-06T12:46:49.566Z,21.7
2018-12-06T12:48:49.711Z,21.1
2018-12-06T12:50:50.113Z,22.4
2018-12-06T12:52:50.168Z,23.9
2018-12-06T12:54:50.144Z,23.9
2018-12-06T12:56:49.533Z,23.2
2018-12-06T12:58:49.574Z,24.1
2018-12-06T13:00:49.590Z,27.5
2018-12-06T13:02:49.605Z,23.4
2018-12-06T13:04:50.037Z,23.4
2018-12-06T13:06:50.152Z,24.0
2018-12-06T13:08:50.153Z,24.3
2018-12-06T13:10:50.170Z,23.4
2018-12-06T13:12:50.128Z,26.5
2018-12-06T13:14:50.073Z,26.5
2018-12-06T13:16:50.226Z,24.6
2018-12-06T13:18:50.188Z,25.9
2018-12-06T13:20:50.143Z,25.9
2018-12-06T13:22:50.098Z,23.5
2018-12-06T13:24:50.077Z,23.5
2018-12-06T13:26:50.185Z,23.3
2018-12-06T13:28:50.111Z,24.6
2018-12-06T13:30:50.078Z,23.8
2018-12-06T13:32:50.014Z,23.8
2018-12-06T13:34:50.334Z,23.1
2018-12-06T13:36:49.849Z,24.5
2018-12-06T13:38:49.849Z,24.3
2018-12-06T13:40:49.921Z,22.9
2018-12-06T13:42:49.976Z,22.9
2018-12-06T13:44:49.977Z,25.2
2018-12-06T13:46:50.160Z,25.0
2018-12-06T13:48:50.158Z,24.1
2018-12-06T13:50:50.124Z,24.7
2018-12-06T13:52:50.138Z,24.7
2018-12-06T13:54:50.198Z,23.4
2018-12-06T13:56:50.348Z,24.1
2018-12-06T13:58:50.288Z,24.6
2018-12-06T14:00:50.501Z,23.1
2018-12-06T14:02:50.208Z,23.1
2018-12-06T14:04:49.545Z,23.1
2018-12-06T14:06:49.866Z,24.9
2018-12-06T14:08:49.846Z,22.8
2018-12-06T14:10:49.862Z,22.8
2018-12-06T14:12:49.898Z,26.5
2018-12-06T14:14:50.080Z,24.5
2018-12-06T14:16:50.235Z,23.8
2018-12-06T14:18:50.192Z,22.1
2018-12-06T14:20:50.180Z,22.1
2018-12-06T14:22:50.244Z,24.1
2018-12-06T14:24:50.274Z,26.8
2018-12-06T14:26:49.446Z,24.1
2018-12-06T14:28:49.453Z,24.1
2018-12-06T14:30:49.478Z,25.5
2018-12-06T14:32:49.465Z,26.7
2018-12-06T14:34:49.875Z,25.2
2018-12-06T14:37:01.330Z,25.0
2018-12-06T14:38:50.056Z,25.0
2018-12-06T14:40:49.981Z,24.6
2018-12-06T14:42:49.982Z,24.5
2018-12-06T14:44:49.961Z,25.3
2018-12-06T14:46:50.118Z,25.3
2018-12-06T14:48:50.065Z,23.6
2018-12-06T14:50:50.869Z,23.6
2018-12-06T14:52:50.022Z,25.2
2018-12-06T14:54:50.061Z,26.0
2018-12-06T14:56:50.303Z,25.9
2018-12-06T14:58:50.224Z,25.3
2018-12-06T15:00:50.246Z,25.3
2018-12-06T15:02:50.249Z,26.8
2018-12-06T15:04:49.672Z,24.1
2018-12-06T15:06:49.800Z,24.8
2018-12-06T15:08:49.790Z,27.1
2018-12-06T15:10:49.771Z,27.1
2018-12-06T15:12:49.771Z,23.3
2018-12-06T15:14:49.801Z,22.5
2018-12-06T15:16:50.023Z,25.1
2018-12-06T15:18:50.087Z,25.1
2018-12-06T15:20:50.131Z,27.4
2018-12-06T15:22:50.132Z,24.6
2018-12-06T15:24:50.192Z,24.6
2018-12-06T15:26:49.461Z,25.3
2018-12-06T15:28:49.465Z,25.3
2018-12-06T15:30:49.485Z,24.8
2018-12-06T15:32:49.469Z,24.5
2018-12-06T15:34:49.529Z,25.3
2018-12-06T15:36:49.767Z,25.3
2018-12-06T15:38:49.831Z,25.5
2018-12-06T15:40:49.849Z,23.7
2018-12-06T15:42:49.872Z,22.1
2018-12-06T15:44:49.852Z,27.4
2018-12-06T15:46:49.977Z,22.2
2018-12-06T15:48:50.048Z,22.2
2018-12-06T15:50:50.042Z,21.6
2018-12-06T15:52:50.037Z,24.4
2018-12-06T15:54:50.055Z,34.1
2018-12-06T15:56:50.243Z,34.1
2018-12-06T15:58:50.186Z,20.1
2018-12-06T16:00:50.231Z,25.0
2018-12-06T16:02:50.225Z,21.3
2018-12-06T16:04:49.608Z,16.7
2018-12-06T16:06:49.801Z,16.7
2018-12-06T16:08:49.860Z,16.3
2018-12-06T16:10:49.937Z,15.6
2018-12-06T16:12:49.931Z,14.7
2018-12-06T16:14:49.946Z,15.0
2018-12-06T16:16:50.126Z,15.0
2018-12-06T16:18:50.113Z,14.1
2018-12-06T16:20:50.062Z,14.1
2018-12-06T16:22:50.017Z,12.6
2018-12-06T16:24:50.006Z,12.8
2018-12-06T16:26:50.179Z,12.8
2018-12-06T16:28:50.238Z,12.6
2018-12-06T16:30:50.278Z,13.5
2018-12-06T16:32:50.277Z,13.9
2018-12-06T16:34:49.769Z,13.9
2018-12-06T16:36:49.939Z,15.3
2018-12-06T16:38:49.937Z,20.3
2018-12-06T16:40:49.983Z,17.6
2018-12-06T16:42:49.997Z,14.9
2018-12-06T16:44:49.935Z,11.1
2018-12-06T16:46:50.092Z,11.1
2018-12-06T16:48:50.075Z,12.7
2018-12-06T16:50:50.039Z,13.2
2018-12-06T16:52:50.059Z,11.3
2018-12-06T16:54:50.102Z,11.3
2018-12-06T16:56:50.275Z,11.3
2018-12-06T16:58:50.313Z,12.4
2018-12-06T17:00:50.288Z,11.7
2018-12-06T17:02:50.234Z,11.8
2018-12-06T17:04:49.662Z,11.8
2018-12-06T17:06:49.803Z,12.5
2018-12-06T17:08:49.818Z,13.2
2018-12-06T17:10:49.845Z,13.6
2018-12-06T17:12:49.876Z,15.9
2018-12-06T17:14:49.912Z,15.9
2018-12-06T17:16:50.188Z,15.3
2018-12-06T17:18:50.179Z,13.4
2018-12-06T17:20:50.143Z,14.4
2018-12-06T17:22:50.162Z,15.8
2018-12-06T17:24:50.091Z,15.8
2018-12-06T17:26:50.301Z,16.8
2018-12-06T17:28:50.245Z,14.9
2018-12-06T17:30:50.265Z,15.5
2018-12-06T17:32:50.207Z,14.9
2018-12-06T17:34:50.425Z,14.9
2018-12-06T17:36:50.786Z,15.5
2018-12-06T17:38:49.849Z,15.8
2018-12-06T17:40:49.810Z,15.6
2018-12-06T17:42:49.846Z,15.8
2018-12-06T17:44:49.820Z,15.8
2018-12-06T17:46:50.029Z,15.3
2018-12-06T17:48:49.958Z,15.8
2018-12-06T17:50:49.930Z,16.7
2018-12-06T17:52:49.938Z,16.7
2018-12-06T17:54:50.035Z,16.0
2018-12-06T17:56:50.208Z,16.1
2018-12-06T17:58:50.160Z,16.0
2018-12-06T18:00:50.252Z,16.0
2018-12-06T18:02:50.196Z,15.6
2018-12-06T18:04:49.473Z,15.3
2018-12-06T18:06:49.729Z,15.3
2018-12-06T18:08:49.642Z,15.3
2018-12-06T18:10:49.720Z,14.9
2018-12-06T18:12:49.688Z,14.9
2018-12-06T18:14:49.718Z,14.6
2018-12-06T18:16:50.041Z,15.0
2018-12-06T18:18:50.038Z,14.7
2018-12-06T18:20:50.066Z,14.7
2018-12-06T18:22:50.102Z,16.0
2018-12-06T18:24:50.156Z,15.8
2018-12-06T18:26:50.289Z,17.2
2018-12-06T18:28:50.284Z,17.0
2018-12-06T18:30:50.264Z,17.5
2018-12-06T18:32:50.227Z,17.5
2018-12-06T18:34:49.609Z,18.5
2018-12-06T18:36:49.946Z,19.2
2018-12-06T18:38:49.905Z,18.5
2018-12-06T18:40:49.897Z,18.5
2018-12-06T18:42:49.884Z,18.3
2018-12-06T18:44:49.933Z,17.9
2018-12-06T18:46:50.125Z,18.0
2018-12-06T18:48:50.074Z,17.7
2018-12-06T18:50:50.184Z,17.7
2018-12-06T18:52:50.240Z,17.3
2018-12-06T18:54:50.254Z,16.8
2018-12-06T18:56:49.519Z,16.8
2018-12-06T18:58:49.531Z,16.0
2018-12-06T19:00:49.542Z,16.0
2018-12-06T19:02:49.641Z,16.5
2018-12-06T19:04:50.073Z,16.0
2018-12-06T19:06:50.272Z,16.0
2018-12-06T19:08:50.295Z,16.1
2018-12-06T19:10:50.281Z,16.1
2018-12-06T19:12:50.434Z,17.0
2018-12-06T19:14:49.455Z,15.5
2018-12-06T19:16:49.791Z,15.6
2018-12-06T19:18:49.826Z,15.0
2018-12-06T19:20:49.835Z,15.0
2018-12-06T19:22:49.832Z,15.6
2018-12-06T19:24:49.825Z,15.3
2018-12-06T19:26:50.103Z,15.1
2018-12-06T19:28:50.247Z,15.1
2018-12-06T19:30:50.281Z,15.3
2018-12-06T19:32:50.214Z,15.1
2018-12-06T19:34:49.564Z,15.3
2018-12-06T19:36:49.754Z,15.3
2018-12-06T19:38:49.797Z,15.3
2018-12-06T19:40:49.846Z,14.3
2018-12-06T19:42:49.870Z,14.4
2018-12-06T19:44:49.894Z,13.5
2018-12-06T19:46:49.997Z,14.2
2018-12-06T19:48:50.004Z,14.2
2018-12-06T19:50:49.968Z,15.3
2018-12-06T19:52:50.009Z,15.5
2018-12-06T19:54:50.095Z,14.7
2018-12-06T19:56:50.260Z,14.7
2018-12-06T19:58:50.313Z,15.8
2018-12-06T20:00:50.214Z,14.0
2018-12-06T20:02:50.302Z,14.0
2018-12-06T20:04:49.664Z,15.6
2018-12-06T20:06:49.933Z,15.6
2018-12-06T20:08:49.882Z,14.2
2018-12-06T20:10:49.904Z,18.1
2018-12-06T20:12:49.862Z,14.3
2018-12-06T20:14:49.839Z,14.3
2018-12-06T20:16:50.040Z,16.4
2018-12-06T20:18:50.000Z,14.2
2018-12-06T20:20:49.962Z,14.1
2018-12-06T20:22:49.889Z,14.6
2018-12-06T20:24:49.861Z,14.6
2018-12-06T20:26:50.089Z,14.5
2018-12-06T20:28:50.098Z,14.5
2018-12-06T20:30:50.062Z,13.7
2018-12-06T20:32:50.065Z,13.6
2018-12-06T20:34:50.244Z,14.2
2018-12-06T20:36:49.526Z,14.2
2018-12-06T20:38:49.537Z,13.9
2018-12-06T20:40:49.555Z,14.2
2018-12-06T20:42:49.539Z,14.3
2018-12-06T20:44:49.601Z,14.3
2018-12-06T20:46:49.851Z,13.9
2018-12-06T20:48:49.812Z,14.2
2018-12-06T20:50:49.796Z,14.2
2018-12-06T20:52:49.729Z,14.1
2018-12-06T20:54:49.708Z,14.1
2018-12-06T20:56:49.902Z,15.7
2018-12-06T20:58:49.922Z,14.5
2018-12-06T21:00:49.931Z,14.1
2018-12-06T21:02:49.985Z,14.1
2018-12-06T21:04:50.203Z,14.5
2018-12-06T21:06:49.530Z,15.6
2018-12-06T21:08:49.613Z,14.6
2018-12-06T21:10:49.579Z,14.3
2018-12-06T21:12:49.699Z,14.1
2018-12-06T21:14:49.740Z,14.1
2018-12-06T21:16:49.966Z,14.9
2018-12-06T21:18:49.948Z,14.2
2018-12-06T21:20:49.966Z,13.5
2018-12-06T21:22:50.019Z,13.7
2018-12-06T21:24:49.985Z,13.7
2018-12-06T21:26:50.224Z,13.9
2018-12-06T21:28:50.213Z,14.2
2018-12-06T21:30:50.274Z,14.2
2018-12-06T21:32:50.275Z,15.2
2018-12-06T21:34:49.693Z,15.2
2018-12-06T21:36:49.882Z,15.2
2018-12-06T21:38:49.792Z,16.0
2018-12-06T21:40:49.836Z,15.2
2018-12-06T21:42:49.843Z,16.0
2018-12-06T21:44:49.867Z,16.0
2018-12-06T21:46:50.086Z,16.1
2018-12-06T21:48:50.099Z,15.7
2018-12-06T21:50:50.107Z,17.0
2018-12-06T21:52:50.133Z,15.8
2018-12-06T21:54:50.233Z,15.8
2018-12-06T21:56:49.603Z,19.4
2018-12-06T21:58:49.633Z,16.1
2018-12-06T22:00:49.836Z,16.3
2018-12-06T22:02:49.812Z,16.3
2018-12-06T22:04:49.992Z,15.1
2018-12-06T22:06:50.164Z,13.6
2018-12-06T22:08:50.216Z,13.2
2018-12-06T22:10:50.178Z,12.7
2018-12-06T22:12:50.209Z,12.7
2018-12-06T22:14:50.175Z,13.5
2018-12-06T22:16:50.371Z,12.1
2018-12-06T22:18:50.302Z,12.0
2018-12-06T22:20:50.308Z,12.0
2018-12-06T22:22:49.452Z,11.9
2018-12-06T22:24:49.488Z,12.4
2018-12-06T22:26:49.677Z,11.7
2018-12-06T22:28:49.633Z,11.4
2018-12-06T22:30:49.735Z,11.7
2018-12-06T22:32:49.774Z,11.7
2018-12-06T22:34:50.041Z,10.8
2018-12-06T22:36:50.175Z,10.6
2018-12-06T22:38:50.220Z,10.6
2018-12-06T22:40:50.188Z,10.3
2018-12-06T22:42:50.179Z,10.3
2018-12-06T22:44:50.141Z,10.9
2018-12-06T22:46:50.346Z,9.9
2018-12-06T22:48:50.318Z,10.8
2018-12-06T22:50:50.301Z,10.8
2018-12-06T22:52:50.286Z,9.8
2018-12-06T22:54:50.260Z,10.7
2018-12-06T22:56:49.521Z,10.5
2018-12-06T22:58:49.474Z,10.9
2018-12-06T23:00:49.646Z,10.9
2018-12-06T23:02:49.666Z,10.9
2018-12-06T23:04:49.929Z,10.5
2018-12-06T23:06:50.204Z,11.1
2018-12-06T23:08:50.219Z,11.1
2018-12-06T23:10:50.237Z,11.3
2018-12-06T23:12:49.440Z,10.6
2018-12-06T23:14:49.564Z,10.9
2018-12-06T23:16:49.676Z,11.4
2018-12-06T23:18:49.653Z,11.2
2018-12-06T23:20:49.634Z,11.2
2018-12-06T23:22:49.739Z,10.4
2018-12-06T23:24:49.757Z,10.1
2018-12-06T23:26:50.032Z,10.1
2018-12-06T23:28:49.987Z,10.4
2018-12-06T23:30:49.941Z,10.4
2018-12-06T23:32:49.932Z,10.2
2018-12-06T23:34:50.213Z,10.8
2018-12-06T23:36:49.499Z,10.3
2018-12-06T23:38:49.467Z,10.2
2018-12-06T23:40:49.472Z,10.2
2018-12-06T23:42:49.441Z,10.5
2018-12-06T23:44:49.467Z,10.3
2018-12-06T23:46:49.734Z,10.2
2018-12-06T23:48:49.732Z,10.2
2018-12-06T23:50:49.758Z,9.8
2018-12-06T23:52:49.874Z,9.2
2018-12-06T23:54:49.937Z,8.5
2018-12-06T23:56:50.198Z,9.2
2018-12-06T23:58:50.257Z,9.2
